sensor_id;sensor_type;location;lat;lon;timestamp;P1;durP1;ratioP1;P2;durP2;ratioP2
17959;SDS011;9105;53.552;9.980;2023-08-07T00:02:10;3.80;;;2.70;;
17959;SDS011;9105;53.552;9.980;2023-08-07T00:04:35;4.60;;;2.90;;
17959;SDS011;9105;53.552;9.980;2023-08-07T00:07:01;4.75;;;2.65;;
17959;SDS011;9105;53.552;9.980;2023-08-07T00:09:26;3.92;;;2.50;;
17959;SDS011;9105;53.552;9.980;2023-08-07T00:11:52;6.47;;;2.60;;
17959;SDS011;9105;53.552;9.980;2023-08-07T00:14:17;8.23;;;2.58;;
17959;SDS011;9105;53.552;9.980;2023-08-07T00:16:42;7.25;;;2.88;;
17959;SDS011;9105;53.552;9.980;2023-08-07T00:19:09;9.60;;;2.95;;
17959;SDS011;9105;53.552;9.980;2023-08-07T00:21:34;5.78;;;3.00;;
17959;SDS011;9105;53.552;9.980;2023-08-07T00:24:01;3.47;;;2.35;;
17959;SDS011;9105;53.552;9.980;2023-08-07T00:26:26;5.05;;;2.53;;
17959;SDS011;9105;53.552;9.980;2023-08-07T00:28:52;4.13;;;2.38;;
17959;SDS011;9105;53.552;9.980;2023-08-07T00:31:17;4.97;;;2.47;;
17959;SDS011;9105;53.552;9.980;2023-08-07T00:33:42;7.15;;;2.53;;
17959;SDS011;9105;53.552;9.980;2023-08-07T00:36:08;5.70;;;2.33;;
17959;SDS011;9105;53.552;9.980;2023-08-07T00:38:33;5.35;;;2.60;;
17959;SDS011;9105;53.552;9.980;2023-08-07T00:40:59;7.00;;;2.47;;
17959;SDS011;9105;53.552;9.980;2023-08-07T00:43:25;4.22;;;2.35;;
17959;SDS011;9105;53.552;9.980;2023-08-07T00:45:50;4.88;;;2.63;;
17959;SDS011;9105;53.552;9.980;2023-08-07T00:48:16;2.90;;;2.28;;
17959;SDS011;9105;53.552;9.980;2023-08-07T00:50:41;2.72;;;2.03;;
17959;SDS011;9105;53.552;9.980;2023-08-07T00:53:08;6.03;;;2.28;;
17959;SDS011;9105;53.552;9.980;2023-08-07T00:55:33;3.70;;;2.38;;
17959;SDS011;9105;53.552;9.980;2023-08-07T00:57:59;5.50;;;2.40;;
17959;SDS011;9105;53.552;9.980;2023-08-07T01:00:26;3.85;;;2.38;;
17959;SDS011;9105;53.552;9.980;2023-08-07T01:02:52;3.30;;;2.15;;
17959;SDS011;9105;53.552;9.980;2023-08-07T01:05:19;3.65;;;2.17;;
17959;SDS011;9105;53.552;9.980;2023-08-07T01:07:46;6.72;;;2.47;;
17959;SDS011;9105;53.552;9.980;2023-08-07T01:10:12;7.70;;;2.40;;
17959;SDS011;9105;53.552;9.980;2023-08-07T01:12:42;3.45;;;2.20;;
17959;SDS011;9105;53.552;9.980;2023-08-07T01:15:16;4.50;;;2.55;;
17959;SDS011;9105;53.552;9.980;2023-08-07T01:17:47;5.45;;;2.60;;
17959;SDS011;9105;53.552;9.980;2023-08-07T01:20:13;3.90;;;2.40;;
17959;SDS011;9105;53.552;9.980;2023-08-07T01:22:39;4.80;;;2.40;;
17959;SDS011;9105;53.552;9.980;2023-08-07T01:25:04;4.85;;;2.05;;
17959;SDS011;9105;53.552;9.980;2023-08-07T01:27:32;5.03;;;2.53;;
17959;SDS011;9105;53.552;9.980;2023-08-07T01:30:12;4.40;;;2.20;;
17959;SDS011;9105;53.552;9.980;2023-08-07T01:32:46;3.75;;;2.28;;
17959;SDS011;9105;53.552;9.980;2023-08-07T01:35:40;3.55;;;2.10;;
17959;SDS011;9105;53.552;9.980;2023-08-07T01:38:08;2.95;;;2.35;;
17959;SDS011;9105;53.552;9.980;2023-08-07T01:40:34;7.55;;;2.67;;
17959;SDS011;9105;53.552;9.980;2023-08-07T01:43:01;4.38;;;2.30;;
17959;SDS011;9105;53.552;9.980;2023-08-07T01:45:27;4.95;;;2.13;;
17959;SDS011;9105;53.552;9.980;2023-08-07T01:47:53;3.92;;;2.28;;
17959;SDS011;9105;53.552;9.980;2023-08-07T01:50:19;4.07;;;2.63;;
17959;SDS011;9105;53.552;9.980;2023-08-07T01:52:45;4.68;;;2.10;;
17959;SDS011;9105;53.552;9.980;2023-08-07T01:55:12;3.60;;;2.35;;
17959;SDS011;9105;53.552;9.980;2023-08-07T01:57:38;4.47;;;2.15;;
17959;SDS011;9105;53.552;9.980;2023-08-07T02:00:04;4.85;;;2.25;;
17959;SDS011;9105;53.552;9.980;2023-08-07T02:02:31;4.25;;;2.50;;
17959;SDS011;9105;53.552;9.980;2023-08-07T02:04:56;4.80;;;2.50;;
17959;SDS011;9105;53.552;9.980;2023-08-07T02:07:22;4.32;;;2.53;;
17959;SDS011;9105;53.552;9.980;2023-08-07T02:09:47;6.15;;;2.50;;
17959;SDS011;9105;53.552;9.980;2023-08-07T02:12:12;6.43;;;3.17;;
17959;SDS011;9105;53.552;9.980;2023-08-07T02:14:38;6.25;;;2.30;;
17959;SDS011;9105;53.552;9.980;2023-08-07T02:17:03;4.90;;;2.58;;
17959;SDS011;9105;53.552;9.980;2023-08-07T02:19:29;4.93;;;2.55;;
17959;SDS011;9105;53.552;9.980;2023-08-07T02:21:55;5.57;;;2.20;;
17959;SDS011;9105;53.552;9.980;2023-08-07T02:24:21;6.10;;;2.60;;
17959;SDS011;9105;53.552;9.980;2023-08-07T02:26:46;4.93;;;2.40;;
17959;SDS011;9105;53.552;9.980;2023-08-07T02:29:12;4.30;;;2.40;;
17959;SDS011;9105;53.552;9.980;2023-08-07T02:31:37;4.03;;;2.70;;
17959;SDS011;9105;53.552;9.980;2023-08-07T02:34:02;6.30;;;2.50;;
17959;SDS011;9105;53.552;9.980;2023-08-07T02:36:28;4.53;;;2.97;;
17959;SDS011;9105;53.552;9.980;2023-08-07T02:38:53;5.35;;;2.55;;
17959;SDS011;9105;53.552;9.980;2023-08-07T02:41:19;7.43;;;3.08;;
17959;SDS011;9105;53.552;9.980;2023-08-07T02:43:45;6.07;;;2.90;;
17959;SDS011;9105;53.552;9.980;2023-08-07T02:46:11;5.30;;;2.80;;
17959;SDS011;9105;53.552;9.980;2023-08-07T02:48:36;6.35;;;2.88;;
17959;SDS011;9105;53.552;9.980;2023-08-07T02:51:02;4.68;;;2.67;;
17959;SDS011;9105;53.552;9.980;2023-08-07T02:53:27;5.32;;;2.47;;
17959;SDS011;9105;53.552;9.980;2023-08-07T02:55:53;3.95;;;2.80;;
17959;SDS011;9105;53.552;9.980;2023-08-07T02:58:18;4.07;;;2.30;;
17959;SDS011;9105;53.552;9.980;2023-08-07T03:00:44;6.57;;;2.63;;
17959;SDS011;9105;53.552;9.980;2023-08-07T03:03:09;5.72;;;2.60;;
17959;SDS011;9105;53.552;9.980;2023-08-07T03:05:34;2.70;;;2.45;;
17959;SDS011;9105;53.552;9.980;2023-08-07T03:08:02;5.15;;;2.40;;
17959;SDS011;9105;53.552;9.980;2023-08-07T03:10:28;5.13;;;2.08;;
17959;SDS011;9105;53.552;9.980;2023-08-07T03:12:53;4.05;;;2.22;;
17959;SDS011;9105;53.552;9.980;2023-08-07T03:15:19;4.80;;;2.50;;
17959;SDS011;9105;53.552;9.980;2023-08-07T03:17:45;5.97;;;2.28;;
17959;SDS011;9105;53.552;9.980;2023-08-07T03:20:10;6.10;;;2.33;;
17959;SDS011;9105;53.552;9.980;2023-08-07T03:22:37;4.68;;;2.28;;
17959;SDS011;9105;53.552;9.980;2023-08-07T03:25:03;4.28;;;2.30;;
17959;SDS011;9105;53.552;9.980;2023-08-07T03:27:29;5.55;;;2.50;;
17959;SDS011;9105;53.552;9.980;2023-08-07T03:29:54;4.93;;;2.60;;
17959;SDS011;9105;53.552;9.980;2023-08-07T03:32:19;4.38;;;2.20;;
17959;SDS011;9105;53.552;9.980;2023-08-07T03:34:45;6.45;;;2.42;;
17959;SDS011;9105;53.552;9.980;2023-08-07T03:37:10;5.38;;;2.35;;
17959;SDS011;9105;53.552;9.980;2023-08-07T03:39:36;4.85;;;2.60;;
17959;SDS011;9105;53.552;9.980;2023-08-07T03:42:01;3.53;;;2.28;;
17959;SDS011;9105;53.552;9.980;2023-08-07T03:44:27;4.00;;;1.95;;
17959;SDS011;9105;53.552;9.980;2023-08-07T03:46:52;5.30;;;2.20;;
17959;SDS011;9105;53.552;9.980;2023-08-07T03:49:20;7.43;;;2.25;;
17959;SDS011;9105;53.552;9.980;2023-08-07T03:51:46;8.88;;;2.08;;
17959;SDS011;9105;53.552;9.980;2023-08-07T03:54:11;6.65;;;2.67;;
17959;SDS011;9105;53.552;9.980;2023-08-07T03:56:37;5.60;;;2.22;;
17959;SDS011;9105;53.552;9.980;2023-08-07T03:59:03;7.18;;;2.53;;
17959;SDS011;9105;53.552;9.980;2023-08-07T04:01:29;4.03;;;2.17;;
17959;SDS011;9105;53.552;9.980;2023-08-07T04:03:54;7.75;;;2.65;;
17959;SDS011;9105;53.552;9.980;2023-08-07T04:06:20;4.63;;;2.67;;
17959;SDS011;9105;53.552;9.980;2023-08-07T04:08:46;4.55;;;2.58;;
17959;SDS011;9105;53.552;9.980;2023-08-07T04:11:12;5.35;;;2.30;;
17959;SDS011;9105;53.552;9.980;2023-08-07T04:13:37;4.47;;;2.53;;
17959;SDS011;9105;53.552;9.980;2023-08-07T04:16:03;5.47;;;2.65;;
17959;SDS011;9105;53.552;9.980;2023-08-07T04:18:29;6.63;;;2.70;;
17959;SDS011;9105;53.552;9.980;2023-08-07T04:20:56;5.03;;;2.60;;
17959;SDS011;9105;53.552;9.980;2023-08-07T04:23:21;10.23;;;2.90;;
17959;SDS011;9105;53.552;9.980;2023-08-07T04:25:47;8.77;;;2.85;;
17959;SDS011;9105;53.552;9.980;2023-08-07T04:28:13;5.80;;;2.60;;
17959;SDS011;9105;53.552;9.980;2023-08-07T04:30:39;6.57;;;2.92;;
17959;SDS011;9105;53.552;9.980;2023-08-07T04:35:33;7.72;;;3.10;;
17959;SDS011;9105;53.552;9.980;2023-08-07T04:37:59;5.75;;;2.47;;
17959;SDS011;9105;53.552;9.980;2023-08-07T04:40:24;10.52;;;3.33;;
17959;SDS011;9105;53.552;9.980;2023-08-07T04:42:50;6.53;;;3.10;;
17959;SDS011;9105;53.552;9.980;2023-08-07T04:45:15;5.82;;;2.58;;
17959;SDS011;9105;53.552;9.980;2023-08-07T04:47:41;5.78;;;2.30;;
17959;SDS011;9105;53.552;9.980;2023-08-07T04:50:06;8.73;;;2.85;;
17959;SDS011;9105;53.552;9.980;2023-08-07T04:52:33;8.02;;;3.53;;
17959;SDS011;9105;53.552;9.980;2023-08-07T04:54:59;8.48;;;2.80;;
17959;SDS011;9105;53.552;9.980;2023-08-07T04:57:24;5.18;;;2.72;;
17959;SDS011;9105;53.552;9.980;2023-08-07T04:59:51;6.35;;;2.92;;
17959;SDS011;9105;53.552;9.980;2023-08-07T05:02:17;9.00;;;3.00;;
17959;SDS011;9105;53.552;9.980;2023-08-07T05:04:42;7.47;;;2.80;;
17959;SDS011;9105;53.552;9.980;2023-08-07T05:07:08;10.25;;;2.88;;
17959;SDS011;9105;53.552;9.980;2023-08-07T05:09:33;6.95;;;2.80;;
17959;SDS011;9105;53.552;9.980;2023-08-07T05:11:59;9.45;;;3.47;;
17959;SDS011;9105;53.552;9.980;2023-08-07T05:14:24;6.07;;;2.83;;
17959;SDS011;9105;53.552;9.980;2023-08-07T05:16:49;10.30;;;3.05;;
17959;SDS011;9105;53.552;9.980;2023-08-07T05:19:15;6.20;;;3.30;;
17959;SDS011;9105;53.552;9.980;2023-08-07T05:21:40;8.45;;;3.00;;
17959;SDS011;9105;53.552;9.980;2023-08-07T05:24:06;5.63;;;2.90;;
17959;SDS011;9105;53.552;9.980;2023-08-07T05:26:31;9.38;;;3.08;;
17959;SDS011;9105;53.552;9.980;2023-08-07T05:28:56;10.05;;;3.15;;
17959;SDS011;9105;53.552;9.980;2023-08-07T05:31:24;8.73;;;3.30;;
17959;SDS011;9105;53.552;9.980;2023-08-07T05:33:49;7.35;;;2.92;;
17959;SDS011;9105;53.552;9.980;2023-08-07T05:36:15;6.50;;;2.60;;
17959;SDS011;9105;53.552;9.980;2023-08-07T05:38:40;6.70;;;2.50;;
17959;SDS011;9105;53.552;9.980;2023-08-07T05:41:06;6.20;;;2.67;;
17959;SDS011;9105;53.552;9.980;2023-08-07T05:43:31;8.82;;;2.75;;
17959;SDS011;9105;53.552;9.980;2023-08-07T05:45:57;9.65;;;3.45;;
17959;SDS011;9105;53.552;9.980;2023-08-07T05:48:22;6.88;;;2.78;;
17959;SDS011;9105;53.552;9.980;2023-08-07T05:50:48;7.07;;;3.17;;
17959;SDS011;9105;53.552;9.980;2023-08-07T05:53:13;6.20;;;2.50;;
17959;SDS011;9105;53.552;9.980;2023-08-07T05:55:39;9.18;;;2.95;;
17959;SDS011;9105;53.552;9.980;2023-08-07T05:58:06;8.90;;;2.70;;
17959;SDS011;9105;53.552;9.980;2023-08-07T06:00:31;7.53;;;2.53;;
17959;SDS011;9105;53.552;9.980;2023-08-07T06:02:57;8.32;;;3.20;;
17959;SDS011;9105;53.552;9.980;2023-08-07T06:05:22;6.10;;;2.58;;
17959;SDS011;9105;53.552;9.980;2023-08-07T06:07:48;10.55;;;2.60;;
17959;SDS011;9105;53.552;9.980;2023-08-07T06:10:13;11.65;;;2.63;;
17959;SDS011;9105;53.552;9.980;2023-08-07T06:12:39;12.35;;;3.00;;
17959;SDS011;9105;53.552;9.980;2023-08-07T06:15:04;9.98;;;2.53;;
17959;SDS011;9105;53.552;9.980;2023-08-07T06:17:31;9.95;;;2.95;;
17959;SDS011;9105;53.552;9.980;2023-08-07T06:19:57;10.50;;;3.42;;
17959;SDS011;9105;53.552;9.980;2023-08-07T06:22:22;7.15;;;2.65;;
17959;SDS011;9105;53.552;9.980;2023-08-07T06:24:48;9.10;;;2.95;;
17959;SDS011;9105;53.552;9.980;2023-08-07T06:27:14;9.85;;;2.85;;
17959;SDS011;9105;53.552;9.980;2023-08-07T06:29:39;14.10;;;3.30;;
17959;SDS011;9105;53.552;9.980;2023-08-07T06:32:05;12.35;;;3.38;;
17959;SDS011;9105;53.552;9.980;2023-08-07T06:34:31;12.63;;;3.00;;
17959;SDS011;9105;53.552;9.980;2023-08-07T06:36:56;13.60;;;3.25;;
17959;SDS011;9105;53.552;9.980;2023-08-07T06:39:22;11.38;;;3.25;;
17959;SDS011;9105;53.552;9.980;2023-08-07T06:41:47;10.27;;;2.72;;
17959;SDS011;9105;53.552;9.980;2023-08-07T06:44:13;9.95;;;3.25;;
17959;SDS011;9105;53.552;9.980;2023-08-07T06:46:38;18.98;;;3.10;;
17959;SDS011;9105;53.552;9.980;2023-08-07T06:49:04;14.00;;;3.75;;
17959;SDS011;9105;53.552;9.980;2023-08-07T06:51:29;11.25;;;3.13;;
17959;SDS011;9105;53.552;9.980;2023-08-07T06:53:55;12.82;;;3.13;;
17959;SDS011;9105;53.552;9.980;2023-08-07T06:56:20;11.77;;;3.25;;
17959;SDS011;9105;53.552;9.980;2023-08-07T06:58:46;18.50;;;3.67;;
17959;SDS011;9105;53.552;9.980;2023-08-07T07:01:12;11.90;;;3.10;;
17959;SDS011;9105;53.552;9.980;2023-08-07T07:03:37;10.73;;;3.35;;
17959;SDS011;9105;53.552;9.980;2023-08-07T07:06:02;13.52;;;3.63;;
17959;SDS011;9105;53.552;9.980;2023-08-07T07:08:28;14.55;;;3.67;;
17959;SDS011;9105;53.552;9.980;2023-08-07T07:10:53;10.32;;;3.10;;
17959;SDS011;9105;53.552;9.980;2023-08-07T07:13:19;13.23;;;3.40;;
17959;SDS011;9105;53.552;9.980;2023-08-07T07:15:44;10.50;;;3.30;;
17959;SDS011;9105;53.552;9.980;2023-08-07T07:18:09;13.40;;;3.80;;
17959;SDS011;9105;53.552;9.980;2023-08-07T07:20:35;14.55;;;4.20;;
17959;SDS011;9105;53.552;9.980;2023-08-07T07:23:00;10.43;;;3.72;;
17959;SDS011;9105;53.552;9.980;2023-08-07T07:25:26;10.95;;;3.20;;
17959;SDS011;9105;53.552;9.980;2023-08-07T07:27:51;10.75;;;3.53;;
17959;SDS011;9105;53.552;9.980;2023-08-07T07:30:17;13.57;;;3.35;;
17959;SDS011;9105;53.552;9.980;2023-08-07T07:32:42;10.20;;;3.80;;
17959;SDS011;9105;53.552;9.980;2023-08-07T07:35:08;13.38;;;3.42;;
17959;SDS011;9105;53.552;9.980;2023-08-07T07:37:33;14.52;;;3.65;;
17959;SDS011;9105;53.552;9.980;2023-08-07T07:39:59;14.20;;;3.92;;
17959;SDS011;9105;53.552;9.980;2023-08-07T07:42:24;13.52;;;3.20;;
17959;SDS011;9105;53.552;9.980;2023-08-07T07:44:50;12.90;;;3.53;;
17959;SDS011;9105;53.552;9.980;2023-08-07T07:47:15;15.73;;;3.58;;
17959;SDS011;9105;53.552;9.980;2023-08-07T07:49:44;12.52;;;3.67;;
17959;SDS011;9105;53.552;9.980;2023-08-07T07:52:11;12.10;;;3.85;;
17959;SDS011;9105;53.552;9.980;2023-08-07T07:54:36;11.40;;;3.63;;
17959;SDS011;9105;53.552;9.980;2023-08-07T07:57:02;13.40;;;3.90;;
17959;SDS011;9105;53.552;9.980;2023-08-07T07:59:27;8.70;;;3.35;;
17959;SDS011;9105;53.552;9.980;2023-08-07T08:01:53;12.05;;;4.00;;
17959;SDS011;9105;53.552;9.980;2023-08-07T08:04:18;11.05;;;3.47;;
17959;SDS011;9105;53.552;9.980;2023-08-07T08:06:44;13.90;;;4.35;;
17959;SDS011;9105;53.552;9.980;2023-08-07T08:09:09;14.25;;;3.80;;
17959;SDS011;9105;53.552;9.980;2023-08-07T08:11:35;11.52;;;3.70;;
17959;SDS011;9105;53.552;9.980;2023-08-07T08:14:00;13.98;;;3.83;;
17959;SDS011;9105;53.552;9.980;2023-08-07T08:16:26;14.43;;;4.00;;
17959;SDS011;9105;53.552;9.980;2023-08-07T08:18:51;13.95;;;4.05;;
17959;SDS011;9105;53.552;9.980;2023-08-07T08:21:16;13.18;;;3.53;;
17959;SDS011;9105;53.552;9.980;2023-08-07T08:23:42;13.23;;;3.85;;
17959;SDS011;9105;53.552;9.980;2023-08-07T08:26:07;10.85;;;3.35;;
17959;SDS011;9105;53.552;9.980;2023-08-07T08:28:33;15.23;;;3.92;;
17959;SDS011;9105;53.552;9.980;2023-08-07T08:30:58;19.90;;;4.10;;
17959;SDS011;9105;53.552;9.980;2023-08-07T08:33:24;14.77;;;3.95;;
17959;SDS011;9105;53.552;9.980;2023-08-07T08:35:49;16.00;;;3.70;;
17959;SDS011;9105;53.552;9.980;2023-08-07T08:38:14;13.02;;;3.88;;
17959;SDS011;9105;53.552;9.980;2023-08-07T08:40:41;15.80;;;3.75;;
17959;SDS011;9105;53.552;9.980;2023-08-07T08:43:07;12.70;;;3.25;;
17959;SDS011;9105;53.552;9.980;2023-08-07T08:45:35;20.23;;;4.03;;
17959;SDS011;9105;53.552;9.980;2023-08-07T08:48:04;15.32;;;4.22;;
17959;SDS011;9105;53.552;9.980;2023-08-07T08:50:31;19.42;;;4.35;;
17959;SDS011;9105;53.552;9.980;2023-08-07T08:52:57;12.50;;;3.70;;
17959;SDS011;9105;53.552;9.980;2023-08-07T08:55:23;18.65;;;4.63;;
17959;SDS011;9105;53.552;9.980;2023-08-07T08:57:50;15.63;;;4.15;;
17959;SDS011;9105;53.552;9.980;2023-08-07T09:00:16;13.93;;;4.05;;
17959;SDS011;9105;53.552;9.980;2023-08-07T09:02:48;10.70;;;3.67;;
17959;SDS011;9105;53.552;9.980;2023-08-07T09:05:14;17.48;;;4.22;;
17959;SDS011;9105;53.552;9.980;2023-08-07T09:07:42;16.65;;;4.15;;
17959;SDS011;9105;53.552;9.980;2023-08-07T09:10:09;11.27;;;3.30;;
17959;SDS011;9105;53.552;9.980;2023-08-07T09:12:36;13.00;;;3.75;;
17959;SDS011;9105;53.552;9.980;2023-08-07T09:15:05;16.35;;;3.88;;
17959;SDS011;9105;53.552;9.980;2023-08-07T09:17:33;13.75;;;3.45;;
17959;SDS011;9105;53.552;9.980;2023-08-07T09:20:00;12.85;;;4.18;;
17959;SDS011;9105;53.552;9.980;2023-08-07T09:22:26;15.93;;;4.03;;
17959;SDS011;9105;53.552;9.980;2023-08-07T09:24:51;13.77;;;3.45;;
17959;SDS011;9105;53.552;9.980;2023-08-07T09:27:17;13.30;;;3.47;;
17959;SDS011;9105;53.552;9.980;2023-08-07T09:29:43;16.52;;;3.28;;
17959;SDS011;9105;53.552;9.980;2023-08-07T09:32:11;14.43;;;3.45;;
17959;SDS011;9105;53.552;9.980;2023-08-07T09:34:40;8.20;;;2.80;;
17959;SDS011;9105;53.552;9.980;2023-08-07T09:37:07;11.90;;;3.42;;
17959;SDS011;9105;53.552;9.980;2023-08-07T09:39:35;15.40;;;3.67;;
17959;SDS011;9105;53.552;9.980;2023-08-07T09:42:01;11.75;;;2.95;;
17959;SDS011;9105;53.552;9.980;2023-08-07T09:44:36;12.93;;;3.38;;
17959;SDS011;9105;53.552;9.980;2023-08-07T09:47:10;15.02;;;3.67;;
17959;SDS011;9105;53.552;9.980;2023-08-07T09:49:43;13.82;;;3.78;;
17959;SDS011;9105;53.552;9.980;2023-08-07T09:52:10;10.27;;;3.85;;
17959;SDS011;9105;53.552;9.980;2023-08-07T09:54:38;13.02;;;3.50;;
17959;SDS011;9105;53.552;9.980;2023-08-07T09:57:04;10.82;;;3.13;;
17959;SDS011;9105;53.552;9.980;2023-08-07T09:59:31;9.90;;;3.00;;
17959;SDS011;9105;53.552;9.980;2023-08-07T10:01:57;11.82;;;3.40;;
17959;SDS011;9105;53.552;9.980;2023-08-07T10:04:25;8.60;;;2.55;;
17959;SDS011;9105;53.552;9.980;2023-08-07T10:06:51;11.40;;;3.25;;
17959;SDS011;9105;53.552;9.980;2023-08-07T10:09:17;9.60;;;3.00;;
17959;SDS011;9105;53.552;9.980;2023-08-07T10:11:43;9.45;;;3.13;;
17959;SDS011;9105;53.552;9.980;2023-08-07T10:14:08;10.15;;;2.95;;
17959;SDS011;9105;53.552;9.980;2023-08-07T10:16:34;10.18;;;3.33;;
17959;SDS011;9105;53.552;9.980;2023-08-07T10:19:04;12.20;;;2.78;;
17959;SDS011;9105;53.552;9.980;2023-08-07T10:21:30;15.60;;;3.38;;
17959;SDS011;9105;53.552;9.980;2023-08-07T10:23:58;9.55;;;3.15;;
17959;SDS011;9105;53.552;9.980;2023-08-07T10:26:25;9.93;;;3.00;;
17959;SDS011;9105;53.552;9.980;2023-08-07T10:28:51;10.32;;;3.25;;
17959;SDS011;9105;53.552;9.980;2023-08-07T10:31:18;8.90;;;3.25;;
17959;SDS011;9105;53.552;9.980;2023-08-07T10:33:46;15.30;;;3.75;;
17959;SDS011;9105;53.552;9.980;2023-08-07T10:36:11;9.15;;;3.13;;
17959;SDS011;9105;53.552;9.980;2023-08-07T10:38:37;14.95;;;3.33;;
17959;SDS011;9105;53.552;9.980;2023-08-07T10:41:07;11.88;;;3.20;;
17959;SDS011;9105;53.552;9.980;2023-08-07T10:43:37;11.15;;;3.25;;
17959;SDS011;9105;53.552;9.980;2023-08-07T10:46:08;9.15;;;2.72;;
17959;SDS011;9105;53.552;9.980;2023-08-07T10:48:42;11.50;;;3.33;;
17959;SDS011;9105;53.552;9.980;2023-08-07T10:51:16;10.27;;;3.22;;
17959;SDS011;9105;53.552;9.980;2023-08-07T10:53:49;12.23;;;3.53;;
17959;SDS011;9105;53.552;9.980;2023-08-07T10:56:29;13.68;;;3.05;;
17959;SDS011;9105;53.552;9.980;2023-08-07T10:58:56;12.02;;;3.22;;
17959;SDS011;9105;53.552;9.980;2023-08-07T11:01:24;11.82;;;3.35;;
17959;SDS011;9105;53.552;9.980;2023-08-07T11:04:04;10.05;;;3.30;;
17959;SDS011;9105;53.552;9.980;2023-08-07T11:06:31;10.10;;;3.00;;
17959;SDS011;9105;53.552;9.980;2023-08-07T11:09:03;12.48;;;3.20;;
17959;SDS011;9105;53.552;9.980;2023-08-07T11:11:35;10.95;;;3.13;;
17959;SDS011;9105;53.552;9.980;2023-08-07T11:14:18;7.68;;;2.53;;
17959;SDS011;9105;53.552;9.980;2023-08-07T11:16:45;12.48;;;3.63;;
17959;SDS011;9105;53.552;9.980;2023-08-07T11:19:14;9.73;;;2.97;;
17959;SDS011;9105;53.552;9.980;2023-08-07T11:21:41;4.43;;;2.08;;
17959;SDS011;9105;53.552;9.980;2023-08-07T11:24:07;9.13;;;2.67;;
17959;SDS011;9105;53.552;9.980;2023-08-07T11:26:33;8.88;;;3.05;;
17959;SDS011;9105;53.552;9.980;2023-08-07T11:28:58;10.88;;;3.13;;
17959;SDS011;9105;53.552;9.980;2023-08-07T11:31:24;10.70;;;2.80;;
17959;SDS011;9105;53.552;9.980;2023-08-07T11:33:54;10.10;;;2.65;;
17959;SDS011;9105;53.552;9.980;2023-08-07T11:36:20;12.32;;;2.95;;
17959;SDS011;9105;53.552;9.980;2023-08-07T11:38:46;11.25;;;2.85;;
17959;SDS011;9105;53.552;9.980;2023-08-07T11:41:12;9.77;;;2.13;;
17959;SDS011;9105;53.552;9.980;2023-08-07T11:43:39;8.10;;;2.63;;
17959;SDS011;9105;53.552;9.980;2023-08-07T11:46:05;10.18;;;2.90;;
17959;SDS011;9105;53.552;9.980;2023-08-07T11:48:32;7.20;;;2.20;;
17959;SDS011;9105;53.552;9.980;2023-08-07T11:51:02;10.55;;;2.70;;
17959;SDS011;9105;53.552;9.980;2023-08-07T11:53:29;8.85;;;2.55;;
17959;SDS011;9105;53.552;9.980;2023-08-07T11:56:03;9.65;;;2.45;;
17959;SDS011;9105;53.552;9.980;2023-08-07T11:58:39;7.72;;;2.03;;
17959;SDS011;9105;53.552;9.980;2023-08-07T12:01:12;5.78;;;2.00;;
17959;SDS011;9105;53.552;9.980;2023-08-07T12:06:20;7.78;;;2.10;;
17959;SDS011;9105;53.552;9.980;2023-08-07T12:08:48;10.68;;;2.33;;
17959;SDS011;9105;53.552;9.980;2023-08-07T12:11:16;9.27;;;3.25;;
17959;SDS011;9105;53.552;9.980;2023-08-07T12:13:42;12.70;;;2.90;;
17959;SDS011;9105;53.552;9.980;2023-08-07T12:16:08;7.63;;;2.20;;
17959;SDS011;9105;53.552;9.980;2023-08-07T12:18:34;11.38;;;2.47;;
17959;SDS011;9105;53.552;9.980;2023-08-07T12:21:03;9.95;;;2.20;;
17959;SDS011;9105;53.552;9.980;2023-08-07T12:23:34;9.35;;;2.22;;
17959;SDS011;9105;53.552;9.980;2023-08-07T12:26:01;8.98;;;2.50;;
17959;SDS011;9105;53.552;9.980;2023-08-07T12:28:27;6.75;;;2.33;;
17959;SDS011;9105;53.552;9.980;2023-08-07T12:30:53;7.32;;;1.95;;
17959;SDS011;9105;53.552;9.980;2023-08-07T12:33:21;7.53;;;2.40;;
17959;SDS011;9105;53.552;9.980;2023-08-07T12:35:46;9.02;;;2.42;;
17959;SDS011;9105;53.552;9.980;2023-08-07T12:38:12;11.55;;;2.88;;
17959;SDS011;9105;53.552;9.980;2023-08-07T12:40:40;7.97;;;2.35;;
17959;SDS011;9105;53.552;9.980;2023-08-07T12:43:05;9.63;;;2.53;;
17959;SDS011;9105;53.552;9.980;2023-08-07T12:45:34;10.52;;;2.85;;
17959;SDS011;9105;53.552;9.980;2023-08-07T12:48:00;10.30;;;2.88;;
17959;SDS011;9105;53.552;9.980;2023-08-07T12:50:25;13.23;;;2.67;;
17959;SDS011;9105;53.552;9.980;2023-08-07T12:52:51;13.35;;;3.28;;
17959;SDS011;9105;53.552;9.980;2023-08-07T12:55:16;8.20;;;2.83;;
17959;SDS011;9105;53.552;9.980;2023-08-07T12:57:42;12.85;;;3.50;;
17959;SDS011;9105;53.552;9.980;2023-08-07T13:00:09;9.48;;;2.70;;
17959;SDS011;9105;53.552;9.980;2023-08-07T13:02:43;7.50;;;2.60;;
17959;SDS011;9105;53.552;9.980;2023-08-07T13:05:10;12.15;;;2.80;;
17959;SDS011;9105;53.552;9.980;2023-08-07T13:07:37;10.27;;;2.90;;
17959;SDS011;9105;53.552;9.980;2023-08-07T13:10:07;9.48;;;2.75;;
17959;SDS011;9105;53.552;9.980;2023-08-07T13:12:34;8.20;;;2.42;;
17959;SDS011;9105;53.552;9.980;2023-08-07T13:15:04;6.40;;;2.38;;
17959;SDS011;9105;53.552;9.980;2023-08-07T13:17:30;9.02;;;2.63;;
17959;SDS011;9105;53.552;9.980;2023-08-07T13:19:57;7.25;;;2.38;;
17959;SDS011;9105;53.552;9.980;2023-08-07T13:22:23;7.72;;;2.70;;
17959;SDS011;9105;53.552;9.980;2023-08-07T13:24:48;9.55;;;2.47;;
17959;SDS011;9105;53.552;9.980;2023-08-07T13:27:13;10.35;;;2.70;;
17959;SDS011;9105;53.552;9.980;2023-08-07T13:29:39;13.18;;;2.85;;
17959;SDS011;9105;53.552;9.980;2023-08-07T13:32:04;14.18;;;3.03;;
17959;SDS011;9105;53.552;9.980;2023-08-07T13:34:37;13.95;;;3.33;;
17959;SDS011;9105;53.552;9.980;2023-08-07T13:37:06;12.40;;;3.30;;
17959;SDS011;9105;53.552;9.980;2023-08-07T13:39:34;11.93;;;3.38;;
17959;SDS011;9105;53.552;9.980;2023-08-07T13:42:00;10.48;;;3.33;;
17959;SDS011;9105;53.552;9.980;2023-08-07T13:44:25;9.73;;;2.95;;
17959;SDS011;9105;53.552;9.980;2023-08-07T13:46:51;14.02;;;3.33;;
17959;SDS011;9105;53.552;9.980;2023-08-07T13:49:16;12.82;;;2.95;;
17959;SDS011;9105;53.552;9.980;2023-08-07T13:51:42;13.23;;;3.10;;
17959;SDS011;9105;53.552;9.980;2023-08-07T13:54:08;9.65;;;2.90;;
17959;SDS011;9105;53.552;9.980;2023-08-07T13:56:33;13.27;;;3.80;;
17959;SDS011;9105;53.552;9.980;2023-08-07T13:58:59;12.85;;;3.15;;
17959;SDS011;9105;53.552;9.980;2023-08-07T14:01:25;12.45;;;3.55;;
17959;SDS011;9105;53.552;9.980;2023-08-07T14:03:50;10.23;;;3.47;;
17959;SDS011;9105;53.552;9.980;2023-08-07T14:06:16;15.07;;;4.15;;
17959;SDS011;9105;53.552;9.980;2023-08-07T14:08:41;12.85;;;3.40;;
17959;SDS011;9105;53.552;9.980;2023-08-07T14:11:07;12.75;;;3.60;;
17959;SDS011;9105;53.552;9.980;2023-08-07T14:13:32;11.65;;;2.92;;
17959;SDS011;9105;53.552;9.980;2023-08-07T14:15:58;11.25;;;3.20;;
17959;SDS011;9105;53.552;9.980;2023-08-07T14:18:23;12.63;;;3.33;;
17959;SDS011;9105;53.552;9.980;2023-08-07T14:20:48;12.15;;;3.05;;
17959;SDS011;9105;53.552;9.980;2023-08-07T14:23:14;12.65;;;3.42;;
17959;SDS011;9105;53.552;9.980;2023-08-07T14:25:39;8.32;;;2.95;;
17959;SDS011;9105;53.552;9.980;2023-08-07T14:28:05;10.40;;;3.05;;
17959;SDS011;9105;53.552;9.980;2023-08-07T14:30:33;12.20;;;3.38;;
17959;SDS011;9105;53.552;9.980;2023-08-07T14:32:58;12.60;;;3.40;;
17959;SDS011;9105;53.552;9.980;2023-08-07T14:35:23;9.57;;;3.15;;
17959;SDS011;9105;53.552;9.980;2023-08-07T14:37:50;11.85;;;3.78;;
17959;SDS011;9105;53.552;9.980;2023-08-07T14:40:16;12.30;;;3.33;;
17959;SDS011;9105;53.552;9.980;2023-08-07T14:42:41;11.82;;;3.25;;
17959;SDS011;9105;53.552;9.980;2023-08-07T14:45:07;8.93;;;3.40;;
17959;SDS011;9105;53.552;9.980;2023-08-07T14:47:33;12.48;;;2.83;;
17959;SDS011;9105;53.552;9.980;2023-08-07T14:49:58;9.73;;;2.88;;
17959;SDS011;9105;53.552;9.980;2023-08-07T14:52:24;8.27;;;2.88;;
17959;SDS011;9105;53.552;9.980;2023-08-07T14:54:49;12.25;;;3.38;;
17959;SDS011;9105;53.552;9.980;2023-08-07T14:57:15;11.35;;;3.45;;